sensor_id;sensor_type;location;lat;lon;timestamp;P1;durP1;ratioP1;P2;durP2;ratioP2
9052;SDS011;4561;47.450;7.516;2022-12-29T00:03:12;2.33;;;1.03;;
9052;SDS011;4561;47.450;7.516;2022-12-29T00:06:32;1.73;;;0.90;;
9052;SDS011;4561;47.450;7.516;2022-12-29T00:09:57;1.73;;;0.73;;
9052;SDS011;4561;47.450;7.516;2022-12-29T00:13:18;1.30;;;1.00;;
9052;SDS011;4561;47.450;7.516;2022-12-29T00:16:57;2.53;;;0.80;;
9052;SDS011;4561;47.450;7.516;2022-12-29T00:20:17;3.40;;;0.70;;
9052;SDS011;4561;47.450;7.516;2022-12-29T00:23:56;1.00;;;0.70;;
9052;SDS011;4561;47.450;7.516;2022-12-29T00:27:35;2.67;;;1.20;;
9052;SDS011;4561;47.450;7.516;2022-12-29T00:31:13;3.00;;;1.00;;
9052;SDS011;4561;47.450;7.516;2022-12-29T00:34:54;2.07;;;0.90;;
9052;SDS011;4561;47.450;7.516;2022-12-29T00:38:31;3.20;;;1.07;;
9052;SDS011;4561;47.450;7.516;2022-12-29T00:42:11;2.50;;;1.07;;
9052;SDS011;4561;47.450;7.516;2022-12-29T00:45:50;1.30;;;0.77;;
9052;SDS011;4561;47.450;7.516;2022-12-29T00:49:11;2.70;;;1.00;;
9052;SDS011;4561;47.450;7.516;2022-12-29T00:52:53;3.03;;;1.20;;
9052;SDS011;4561;47.450;7.516;2022-12-29T00:56:13;1.30;;;0.93;;
9052;SDS011;4561;47.450;7.516;2022-12-29T00:59:34;0.93;;;0.90;;
9052;SDS011;4561;47.450;7.516;2022-12-29T01:02:58;2.57;;;1.13;;
9052;SDS011;4561;47.450;7.516;2022-12-29T01:06:19;1.20;;;0.90;;
9052;SDS011;4561;47.450;7.516;2022-12-29T01:09:39;1.87;;;0.90;;
9052;SDS011;4561;47.450;7.516;2022-12-29T01:13:18;4.10;;;1.10;;
9052;SDS011;4561;47.450;7.516;2022-12-29T01:16:46;4.00;;;1.33;;
9052;SDS011;4561;47.450;7.516;2022-12-29T01:20:12;1.53;;;0.80;;
9052;SDS011;4561;47.450;7.516;2022-12-29T01:23:32;2.27;;;1.07;;
9052;SDS011;4561;47.450;7.516;2022-12-29T01:26:53;1.93;;;0.90;;
9052;SDS011;4561;47.450;7.516;2022-12-29T01:30:14;1.73;;;1.03;;
9052;SDS011;4561;47.450;7.516;2022-12-29T01:33:37;4.30;;;1.30;;
9052;SDS011;4561;47.450;7.516;2022-12-29T01:36:59;1.07;;;0.70;;
9052;SDS011;4561;47.450;7.516;2022-12-29T01:40:23;2.17;;;0.80;;
9052;SDS011;4561;47.450;7.516;2022-12-29T01:47:10;2.30;;;0.90;;
9052;SDS011;4561;47.450;7.516;2022-12-29T01:50:35;3.03;;;0.83;;
9052;SDS011;4561;47.450;7.516;2022-12-29T01:53:57;2.53;;;0.90;;
9052;SDS011;4561;47.450;7.516;2022-12-29T01:57:20;1.63;;;1.00;;
9052;SDS011;4561;47.450;7.516;2022-12-29T02:00:49;1.43;;;0.80;;
9052;SDS011;4561;47.450;7.516;2022-12-29T02:04:11;1.90;;;0.97;;
9052;SDS011;4561;47.450;7.516;2022-12-29T02:07:36;2.03;;;1.13;;
9052;SDS011;4561;47.450;7.516;2022-12-29T02:10:58;2.50;;;1.00;;
9052;SDS011;4561;47.450;7.516;2022-12-29T02:14:19;1.43;;;0.73;;
9052;SDS011;4561;47.450;7.516;2022-12-29T02:28:28;2.97;;;1.00;;
9052;SDS011;4561;47.450;7.516;2022-12-29T02:32:23;4.93;;;1.00;;
9052;SDS011;4561;47.450;7.516;2022-12-29T02:53:13;1.57;;;1.03;;
9052;SDS011;4561;47.450;7.516;2022-12-29T02:56:36;5.73;;;1.17;;
9052;SDS011;4561;47.450;7.516;2022-12-29T03:11:17;4.50;;;1.30;;
9052;SDS011;4561;47.450;7.516;2022-12-29T03:15:03;3.53;;;1.37;;
9052;SDS011;4561;47.450;7.516;2022-12-29T03:22:22;4.10;;;1.60;;
9052;SDS011;4561;47.450;7.516;2022-12-29T03:25:51;2.77;;;1.70;;
9052;SDS011;4561;47.450;7.516;2022-12-29T03:29:16;5.23;;;1.67;;
9052;SDS011;4561;47.450;7.516;2022-12-29T03:32:43;3.07;;;1.40;;
9052;SDS011;4561;47.450;7.516;2022-12-29T03:36:07;2.53;;;1.50;;
9052;SDS011;4561;47.450;7.516;2022-12-29T03:39:30;3.37;;;1.70;;
9052;SDS011;4561;47.450;7.516;2022-12-29T03:42:51;3.50;;;2.00;;
9052;SDS011;4561;47.450;7.516;2022-12-29T03:46:13;2.30;;;1.57;;
9052;SDS011;4561;47.450;7.516;2022-12-29T03:49:35;2.77;;;1.47;;
9052;SDS011;4561;47.450;7.516;2022-12-29T03:52:55;4.03;;;1.80;;
9052;SDS011;4561;47.450;7.516;2022-12-29T03:56:16;2.93;;;1.40;;
9052;SDS011;4561;47.450;7.516;2022-12-29T03:59:36;2.73;;;1.43;;
9052;SDS011;4561;47.450;7.516;2022-12-29T04:02:57;5.13;;;2.10;;
9052;SDS011;4561;47.450;7.516;2022-12-29T04:06:17;2.40;;;1.47;;
9052;SDS011;4561;47.450;7.516;2022-12-29T04:09:37;4.40;;;1.93;;
9052;SDS011;4561;47.450;7.516;2022-12-29T04:12:58;2.73;;;1.53;;
9052;SDS011;4561;47.450;7.516;2022-12-29T04:16:18;5.27;;;1.70;;
9052;SDS011;4561;47.450;7.516;2022-12-29T04:19:38;4.20;;;1.67;;
9052;SDS011;4561;47.450;7.516;2022-12-29T04:23:00;3.07;;;1.40;;
9052;SDS011;4561;47.450;7.516;2022-12-29T04:26:21;2.27;;;1.43;;
9052;SDS011;4561;47.450;7.516;2022-12-29T04:29:43;4.03;;;1.60;;
9052;SDS011;4561;47.450;7.516;2022-12-29T04:33:04;4.07;;;1.40;;
9052;SDS011;4561;47.450;7.516;2022-12-29T04:36:24;3.50;;;1.33;;
9052;SDS011;4561;47.450;7.516;2022-12-29T04:39:45;3.73;;;1.70;;
9052;SDS011;4561;47.450;7.516;2022-12-29T04:43:07;4.20;;;1.73;;
9052;SDS011;4561;47.450;7.516;2022-12-29T04:46:28;2.40;;;1.60;;
9052;SDS011;4561;47.450;7.516;2022-12-29T04:49:49;4.47;;;1.57;;
9052;SDS011;4561;47.450;7.516;2022-12-29T04:53:09;3.00;;;1.60;;
9052;SDS011;4561;47.450;7.516;2022-12-29T04:56:32;2.67;;;1.53;;
9052;SDS011;4561;47.450;7.516;2022-12-29T04:59:54;4.87;;;1.50;;
9052;SDS011;4561;47.450;7.516;2022-12-29T05:03:15;2.83;;;1.73;;
9052;SDS011;4561;47.450;7.516;2022-12-29T05:06:35;3.10;;;1.67;;
9052;SDS011;4561;47.450;7.516;2022-12-29T05:09:56;3.83;;;2.03;;
9052;SDS011;4561;47.450;7.516;2022-12-29T05:13:16;6.57;;;1.50;;
9052;SDS011;4561;47.450;7.516;2022-12-29T05:16:37;1.83;;;1.37;;
9052;SDS011;4561;47.450;7.516;2022-12-29T05:19:57;3.50;;;1.63;;
9052;SDS011;4561;47.450;7.516;2022-12-29T05:23:18;2.40;;;1.87;;
9052;SDS011;4561;47.450;7.516;2022-12-29T05:26:38;3.60;;;1.87;;
9052;SDS011;4561;47.450;7.516;2022-12-29T05:29:59;2.30;;;1.70;;
9052;SDS011;4561;47.450;7.516;2022-12-29T05:33:19;4.77;;;1.67;;
9052;SDS011;4561;47.450;7.516;2022-12-29T05:36:42;2.13;;;1.60;;
9052;SDS011;4561;47.450;7.516;2022-12-29T05:40:03;1.70;;;1.27;;
9052;SDS011;4561;47.450;7.516;2022-12-29T05:43:23;2.23;;;1.33;;
9052;SDS011;4561;47.450;7.516;2022-12-29T05:46:44;2.90;;;1.37;;
9052;SDS011;4561;47.450;7.516;2022-12-29T05:50:04;2.43;;;1.40;;
9052;SDS011;4561;47.450;7.516;2022-12-29T05:53:25;4.30;;;1.50;;
9052;SDS011;4561;47.450;7.516;2022-12-29T05:56:47;2.70;;;1.30;;
9052;SDS011;4561;47.450;7.516;2022-12-29T06:00:08;1.80;;;1.27;;
9052;SDS011;4561;47.450;7.516;2022-12-29T06:03:31;3.60;;;1.40;;
9052;SDS011;4561;47.450;7.516;2022-12-29T06:06:51;2.50;;;1.20;;
9052;SDS011;4561;47.450;7.516;2022-12-29T06:10:14;2.47;;;1.30;;
9052;SDS011;4561;47.450;7.516;2022-12-29T06:13:34;2.60;;;1.40;;
9052;SDS011;4561;47.450;7.516;2022-12-29T06:16:54;2.40;;;1.20;;
9052;SDS011;4561;47.450;7.516;2022-12-29T06:20:15;1.90;;;1.13;;
9052;SDS011;4561;47.450;7.516;2022-12-29T06:23:38;3.10;;;1.13;;
9052;SDS011;4561;47.450;7.516;2022-12-29T06:26:58;2.63;;;1.10;;
9052;SDS011;4561;47.450;7.516;2022-12-29T06:30:21;1.30;;;1.13;;
9052;SDS011;4561;47.450;7.516;2022-12-29T06:33:41;1.37;;;1.10;;
9052;SDS011;4561;47.450;7.516;2022-12-29T06:37:01;1.47;;;0.93;;
9052;SDS011;4561;47.450;7.516;2022-12-29T06:40:24;2.87;;;0.90;;
9052;SDS011;4561;47.450;7.516;2022-12-29T06:43:46;0.90;;;0.90;;
9052;SDS011;4561;47.450;7.516;2022-12-29T06:47:07;3.33;;;0.90;;
9052;SDS011;4561;47.450;7.516;2022-12-29T06:50:27;0.93;;;0.80;;
9052;SDS011;4561;47.450;7.516;2022-12-29T06:53:48;2.43;;;1.13;;
9052;SDS011;4561;47.450;7.516;2022-12-29T06:57:08;1.53;;;0.93;;
9052;SDS011;4561;47.450;7.516;2022-12-29T07:00:29;1.67;;;1.00;;
9052;SDS011;4561;47.450;7.516;2022-12-29T07:03:51;1.30;;;1.10;;
9052;SDS011;4561;47.450;7.516;2022-12-29T07:07:12;3.53;;;1.30;;
9052;SDS011;4561;47.450;7.516;2022-12-29T07:10:32;1.80;;;1.27;;
9052;SDS011;4561;47.450;7.516;2022-12-29T07:13:53;3.33;;;1.40;;
9052;SDS011;4561;47.450;7.516;2022-12-29T07:17:16;2.60;;;1.37;;
9052;SDS011;4561;47.450;7.516;2022-12-29T07:20:36;2.33;;;1.57;;
9052;SDS011;4561;47.450;7.516;2022-12-29T07:23:57;9.87;;;1.93;;
9052;SDS011;4561;47.450;7.516;2022-12-29T07:27:17;5.97;;;1.40;;
9052;SDS011;4561;47.450;7.516;2022-12-29T07:30:40;2.30;;;1.50;;
9052;SDS011;4561;47.450;7.516;2022-12-29T07:34:00;5.37;;;1.73;;
9052;SDS011;4561;47.450;7.516;2022-12-29T07:37:23;2.23;;;1.37;;
9052;SDS011;4561;47.450;7.516;2022-12-29T07:40:46;4.07;;;1.80;;
9052;SDS011;4561;47.450;7.516;2022-12-29T07:44:08;2.77;;;1.73;;
9052;SDS011;4561;47.450;7.516;2022-12-29T07:47:31;3.70;;;1.60;;
9052;SDS011;4561;47.450;7.516;2022-12-29T07:50:56;3.17;;;1.60;;
9052;SDS011;4561;47.450;7.516;2022-12-29T07:54:16;4.83;;;1.43;;
9052;SDS011;4561;47.450;7.516;2022-12-29T07:57:42;3.23;;;1.60;;
9052;SDS011;4561;47.450;7.516;2022-12-29T08:01:02;3.10;;;1.70;;
9052;SDS011;4561;47.450;7.516;2022-12-29T08:04:27;2.80;;;1.40;;
9052;SDS011;4561;47.450;7.516;2022-12-29T08:07:52;2.30;;;1.20;;
9052;SDS011;4561;47.450;7.516;2022-12-29T08:11:15;2.83;;;1.50;;
9052;SDS011;4561;47.450;7.516;2022-12-29T08:14:35;2.00;;;1.50;;
9052;SDS011;4561;47.450;7.516;2022-12-29T08:17:56;3.40;;;1.60;;
9052;SDS011;4561;47.450;7.516;2022-12-29T08:21:16;3.30;;;1.40;;
9052;SDS011;4561;47.450;7.516;2022-12-29T08:24:37;3.90;;;1.73;;
9052;SDS011;4561;47.450;7.516;2022-12-29T08:27:57;2.27;;;1.50;;
9052;SDS011;4561;47.450;7.516;2022-12-29T08:31:20;4.40;;;1.40;;
9052;SDS011;4561;47.450;7.516;2022-12-29T08:34:43;2.70;;;1.50;;
9052;SDS011;4561;47.450;7.516;2022-12-29T08:38:04;4.70;;;1.40;;
9052;SDS011;4561;47.450;7.516;2022-12-29T08:41:24;2.60;;;1.43;;
9052;SDS011;4561;47.450;7.516;2022-12-29T08:44:47;6.37;;;1.63;;
9052;SDS011;4561;47.450;7.516;2022-12-29T08:48:08;4.07;;;1.63;;
9052;SDS011;4561;47.450;7.516;2022-12-29T08:51:28;3.47;;;1.27;;
9052;SDS011;4561;47.450;7.516;2022-12-29T08:54:50;4.53;;;1.53;;
9052;SDS011;4561;47.450;7.516;2022-12-29T08:58:11;3.47;;;1.60;;
9052;SDS011;4561;47.450;7.516;2022-12-29T09:01:34;2.80;;;1.63;;
9052;SDS011;4561;47.450;7.516;2022-12-29T09:04:56;2.50;;;1.07;;
9052;SDS011;4561;47.450;7.516;2022-12-29T09:08:17;3.07;;;1.30;;
9052;SDS011;4561;47.450;7.516;2022-12-29T09:11:38;2.40;;;1.67;;
9052;SDS011;4561;47.450;7.516;2022-12-29T09:15:01;3.73;;;1.60;;
9052;SDS011;4561;47.450;7.516;2022-12-29T09:18:21;2.93;;;1.30;;
9052;SDS011;4561;47.450;7.516;2022-12-29T09:21:41;3.77;;;1.60;;
9052;SDS011;4561;47.450;7.516;2022-12-29T09:25:02;4.83;;;1.83;;
9052;SDS011;4561;47.450;7.516;2022-12-29T09:28:23;2.77;;;1.23;;
9052;SDS011;4561;47.450;7.516;2022-12-29T09:31:44;2.67;;;1.50;;
9052;SDS011;4561;47.450;7.516;2022-12-29T09:35:04;2.43;;;1.23;;
9052;SDS011;4561;47.450;7.516;2022-12-29T09:38:25;2.50;;;1.37;;
9052;SDS011;4561;47.450;7.516;2022-12-29T09:45:29;1.80;;;1.17;;
9052;SDS011;4561;47.450;7.516;2022-12-29T09:49:06;2.67;;;1.33;;
9052;SDS011;4561;47.450;7.516;2022-12-29T09:52:34;2.10;;;1.40;;
9052;SDS011;4561;47.450;7.516;2022-12-29T09:55:58;2.30;;;1.40;;
9052;SDS011;4561;47.450;7.516;2022-12-29T09:59:21;3.17;;;1.47;;
9052;SDS011;4561;47.450;7.516;2022-12-29T10:03:06;2.77;;;1.03;;
9052;SDS011;4561;47.450;7.516;2022-12-29T10:06:42;2.73;;;1.30;;
9052;SDS011;4561;47.450;7.516;2022-12-29T10:25:20;3.90;;;1.33;;
9052;SDS011;4561;47.450;7.516;2022-12-29T10:28:47;3.63;;;1.13;;
9052;SDS011;4561;47.450;7.516;2022-12-29T10:32:21;2.33;;;1.20;;
9052;SDS011;4561;47.450;7.516;2022-12-29T10:35:45;4.97;;;1.37;;
9052;SDS011;4561;47.450;7.516;2022-12-29T10:39:13;1.90;;;0.93;;
9052;SDS011;4561;47.450;7.516;2022-12-29T10:42:38;1.53;;;1.00;;
9052;SDS011;4561;47.450;7.516;2022-12-29T10:46:04;2.10;;;0.90;;
9052;SDS011;4561;47.450;7.516;2022-12-29T10:49:28;2.10;;;1.10;;
9052;SDS011;4561;47.450;7.516;2022-12-29T10:52:52;3.57;;;1.00;;
9052;SDS011;4561;47.450;7.516;2022-12-29T10:59:54;3.50;;;1.43;;
9052;SDS011;4561;47.450;7.516;2022-12-29T11:07:26;3.70;;;1.20;;
9052;SDS011;4561;47.450;7.516;2022-12-29T11:10:47;3.63;;;0.90;;
9052;SDS011;4561;47.450;7.516;2022-12-29T11:14:19;1.43;;;0.90;;
9052;SDS011;4561;47.450;7.516;2022-12-29T11:17:45;1.03;;;0.77;;
9052;SDS011;4561;47.450;7.516;2022-12-29T11:25:10;0.73;;;0.60;;
9052;SDS011;4561;47.450;7.516;2022-12-29T11:28:32;1.67;;;0.80;;
9052;SDS011;4561;47.450;7.516;2022-12-29T11:31:54;1.47;;;1.10;;
9052;SDS011;4561;47.450;7.516;2022-12-29T11:35:29;1.73;;;0.90;;
9052;SDS011;4561;47.450;7.516;2022-12-29T11:38:59;1.50;;;0.70;;
9052;SDS011;4561;47.450;7.516;2022-12-29T11:42:38;4.20;;;0.73;;
9052;SDS011;4561;47.450;7.516;2022-12-29T11:46:12;0.90;;;0.80;;
9052;SDS011;4561;47.450;7.516;2022-12-29T11:49:36;1.70;;;0.90;;
9052;SDS011;4561;47.450;7.516;2022-12-29T11:53:39;1.90;;;0.93;;
9052;SDS011;4561;47.450;7.516;2022-12-29T11:56:41;1.43;;;0.93;;
9052;SDS011;4561;47.450;7.516;2022-12-29T12:00:06;1.83;;;0.90;;
9052;SDS011;4561;47.450;7.516;2022-12-29T12:03:38;1.13;;;0.90;;
9052;SDS011;4561;47.450;7.516;2022-12-29T12:07:10;2.40;;;0.80;;
9052;SDS011;4561;47.450;7.516;2022-12-29T12:10:38;1.80;;;1.07;;
9052;SDS011;4561;47.450;7.516;2022-12-29T12:18:09;1.03;;;0.80;;
9052;SDS011;4561;47.450;7.516;2022-12-29T12:28:54;2.30;;;0.93;;
9052;SDS011;4561;47.450;7.516;2022-12-29T12:32:23;1.67;;;1.10;;
9052;SDS011;4561;47.450;7.516;2022-12-29T12:36:35;1.23;;;0.80;;
9052;SDS011;4561;47.450;7.516;2022-12-29T12:57:33;1.27;;;0.70;;
9052;SDS011;4561;47.450;7.516;2022-12-29T13:08:32;1.03;;;0.83;;
9052;SDS011;4561;47.450;7.516;2022-12-29T13:12:08;1.27;;;0.80;;
9052;SDS011;4561;47.450;7.516;2022-12-29T13:19:30;2.97;;;1.00;;
9052;SDS011;4561;47.450;7.516;2022-12-29T13:23:08;0.83;;;0.70;;
9052;SDS011;4561;47.450;7.516;2022-12-29T13:26:47;1.50;;;1.00;;
9052;SDS011;4561;47.450;7.516;2022-12-29T13:30:22;1.80;;;0.80;;
9052;SDS011;4561;47.450;7.516;2022-12-29T13:37:49;1.03;;;0.80;;
9052;SDS011;4561;47.450;7.516;2022-12-29T13:41:16;1.33;;;0.90;;
9052;SDS011;4561;47.450;7.516;2022-12-29T13:44:46;2.20;;;0.80;;
9052;SDS011;4561;47.450;7.516;2022-12-29T13:48:17;2.47;;;0.80;;
9052;SDS011;4561;47.450;7.516;2022-12-29T13:51:49;1.50;;;0.80;;
9052;SDS011;4561;47.450;7.516;2022-12-29T13:58:38;1.90;;;0.80;;
9052;SDS011;4561;47.450;7.516;2022-12-29T14:02:13;1.13;;;0.90;;
9052;SDS011;4561;47.450;7.516;2022-12-29T14:05:42;1.93;;;0.73;;
9052;SDS011;4561;47.450;7.516;2022-12-29T14:09:06;0.90;;;0.83;;
9052;SDS011;4561;47.450;7.516;2022-12-29T14:13:13;2.07;;;1.00;;
9052;SDS011;4561;47.450;7.516;2022-12-29T14:16:37;2.20;;;0.60;;
9052;SDS011;4561;47.450;7.516;2022-12-29T14:19:58;1.97;;;1.03;;
9052;SDS011;4561;47.450;7.516;2022-12-29T14:26:56;2.57;;;1.00;;
9052;SDS011;4561;47.450;7.516;2022-12-29T14:31:32;2.17;;;0.93;;
9052;SDS011;4561;47.450;7.516;2022-12-29T14:34:22;0.77;;;0.70;;
9052;SDS011;4561;47.450;7.516;2022-12-29T14:37:49;0.73;;;0.70;;
9052;SDS011;4561;47.450;7.516;2022-12-29T14:41:29;1.90;;;0.90;;
9052;SDS011;4561;47.450;7.516;2022-12-29T14:44:52;1.17;;;0.80;;
9052;SDS011;4561;47.450;7.516;2022-12-29T14:51:44;2.13;;;1.00;;
9052;SDS011;4561;47.450;7.516;2022-12-29T14:58:50;1.37;;;1.00;;
9052;SDS011;4561;47.450;7.516;2022-12-29T15:02:23;2.10;;;1.20;;
9052;SDS011;4561;47.450;7.516;2022-12-29T15:06:06;1.03;;;0.90;;
9052;SDS011;4561;47.450;7.516;2022-12-29T15:09:30;1.33;;;1.00;;
9052;SDS011;4561;47.450;7.516;2022-12-29T15:13:00;1.07;;;0.80;;
9052;SDS011;4561;47.450;7.516;2022-12-29T15:19:47;1.13;;;0.70;;
9052;SDS011;4561;47.450;7.516;2022-12-29T15:23:09;1.07;;;1.00;;
9052;SDS011;4561;47.450;7.516;2022-12-29T15:26:38;2.87;;;0.70;;
9052;SDS011;4561;47.450;7.516;2022-12-29T15:30:03;1.23;;;0.70;;
9052;SDS011;4561;47.450;7.516;2022-12-29T15:33:27;0.80;;;0.70;;
9052;SDS011;4561;47.450;7.516;2022-12-29T15:36:53;0.70;;;0.63;;
9052;SDS011;4561;47.450;7.516;2022-12-29T15:40:22;1.37;;;0.83;;
9052;SDS011;4561;47.450;7.516;2022-12-29T15:47:17;0.87;;;0.70;;
9052;SDS011;4561;47.450;7.516;2022-12-29T15:50:39;0.80;;;0.80;;
9052;SDS011;4561;47.450;7.516;2022-12-29T15:54:03;1.87;;;0.93;;
9052;SDS011;4561;47.450;7.516;2022-12-29T16:00:49;0.70;;;0.70;;
9052;SDS011;4561;47.450;7.516;2022-12-29T16:04:12;1.27;;;0.70;;
9052;SDS011;4561;47.450;7.516;2022-12-29T16:07:34;1.73;;;1.00;;
9052;SDS011;4561;47.450;7.516;2022-12-29T16:10:55;0.70;;;0.60;;
9052;SDS011;4561;47.450;7.516;2022-12-29T16:14:18;1.53;;;0.97;;
9052;SDS011;4561;47.450;7.516;2022-12-29T16:17:47;0.73;;;0.70;;
9052;SDS011;4561;47.450;7.516;2022-12-29T16:21:20;1.40;;;0.80;;
9052;SDS011;4561;47.450;7.516;2022-12-29T16:24:43;1.60;;;0.77;;
9052;SDS011;4561;47.450;7.516;2022-12-29T16:28:14;0.70;;;0.60;;
9052;SDS011;4561;47.450;7.516;2022-12-29T16:35:20;1.50;;;0.80;;
9052;SDS011;4561;47.450;7.516;2022-12-29T16:38:42;1.73;;;0.90;;
9052;SDS011;4561;47.450;7.516;2022-12-29T16:49:20;0.97;;;0.80;;
9052;SDS011;4561;47.450;7.516;2022-12-29T16:52:41;1.10;;;0.77;;
9052;SDS011;4561;47.450;7.516;2022-12-29T16:56:03;2.03;;;1.63;;
9052;SDS011;4561;47.450;7.516;2022-12-29T16:59:45;1.03;;;0.70;;
9052;SDS011;4561;47.450;7.516;2022-12-29T17:03:05;0.73;;;0.73;;
9052;SDS011;4561;47.450;7.516;2022-12-29T17:06:26;1.53;;;1.20;;
9052;SDS011;4561;47.450;7.516;2022-12-29T17:09:49;2.13;;;1.53;;
9052;SDS011;4561;47.450;7.516;2022-12-29T17:13:10;1.23;;;0.97;;
9052;SDS011;4561;47.450;7.516;2022-12-29T17:16:33;0.97;;;0.97;;
9052;SDS011;4561;47.450;7.516;2022-12-29T17:19:54;0.90;;;0.90;;
9052;SDS011;4561;47.450;7.516;2022-12-29T17:23:18;0.80;;;0.80;;
9052;SDS011;4561;47.450;7.516;2022-12-29T17:26:39;1.33;;;0.90;;
9052;SDS011;4561;47.450;7.516;2022-12-29T17:30:04;2.00;;;0.87;;
9052;SDS011;4561;47.450;7.516;2022-12-29T17:33:35;1.07;;;0.93;;
9052;SDS011;4561;47.450;7.516;2022-12-29T17:37:01;1.90;;;1.40;;
9052;SDS011;4561;47.450;7.516;2022-12-29T17:40:29;1.40;;;1.20;;
9052;SDS011;4561;47.450;7.516;2022-12-29T17:43:52;1.73;;;1.10;;
9052;SDS011;4561;47.450;7.516;2022-12-29T17:47:13;1.53;;;1.00;;
9052;SDS011;4561;47.450;7.516;2022-12-29T17:50:34;2.57;;;1.10;;
9052;SDS011;4561;47.450;7.516;2022-12-29T17:53:55;1.27;;;1.10;;
9052;SDS011;4561;47.450;7.516;2022-12-29T17:57:16;0.90;;;0.83;;
9052;SDS011;4561;47.450;7.516;2022-12-29T18:00:39;1.20;;;1.10;;
9052;SDS011;4561;47.450;7.516;2022-12-29T18:03:59;1.00;;;0.83;;
9052;SDS011;4561;47.450;7.516;2022-12-29T18:07:20;1.20;;;1.00;;
9052;SDS011;4561;47.450;7.516;2022-12-29T18:10:40;1.30;;;1.10;;
9052;SDS011;4561;47.450;7.516;2022-12-29T18:14:01;1.20;;;1.10;;
9052;SDS011;4561;47.450;7.516;2022-12-29T18:17:24;1.23;;;1.00;;
9052;SDS011;4561;47.450;7.516;2022-12-29T18:20:45;1.70;;;1.10;;
9052;SDS011;4561;47.450;7.516;2022-12-29T18:24:09;1.33;;;1.20;;
9052;SDS011;4561;47.450;7.516;2022-12-29T18:27:35;1.00;;;0.90;;
9052;SDS011;4561;47.450;7.516;2022-12-29T18:30:57;1.20;;;1.00;;
9052;SDS011;4561;47.450;7.516;2022-12-29T18:34:19;2.37;;;1.20;;
9052;SDS011;4561;47.450;7.516;2022-12-29T18:37:39;1.20;;;0.90;;
9052;SDS011;4561;47.450;7.516;2022-12-29T18:41:02;1.10;;;0.90;;
9052;SDS011;4561;47.450;7.516;2022-12-29T18:44:25;1.20;;;1.10;;
9052;SDS011;4561;47.450;7.516;2022-12-29T18:47:50;1.03;;;0.70;;
9052;SDS011;4561;47.450;7.516;2022-12-29T18:51:15;1.93;;;1.20;;
9052;SDS011;4561;47.450;7.516;2022-12-29T18:54:36;3.97;;;3.23;;
9052;SDS011;4561;47.450;7.516;2022-12-29T18:57:57;1.63;;;1.03;;
9052;SDS011;4561;47.450;7.516;2022-12-29T19:01:19;4.77;;;3.63;;
9052;SDS011;4561;47.450;7.516;2022-12-29T19:04:43;2.23;;;2.07;;
9052;SDS011;4561;47.450;7.516;2022-12-29T19:08:04;3.47;;;3.10;;
9052;SDS011;4561;47.450;7.516;2022-12-29T19:11:25;1.53;;;1.43;;
9052;SDS011;4561;47.450;7.516;2022-12-29T19:14:45;2.80;;;2.60;;
9052;SDS011;4561;47.450;7.516;2022-12-29T19:18:06;1.20;;;1.10;;
9052;SDS011;4561;47.450;7.516;2022-12-29T19:21:29;0.70;;;0.50;;
9052;SDS011;4561;47.450;7.516;2022-12-29T19:24:54;0.70;;;0.70;;
9052;SDS011;4561;47.450;7.516;2022-12-29T19:28:18;1.60;;;0.87;;
9052;SDS011;4561;47.450;7.516;2022-12-29T19:31:38;0.90;;;0.77;;
9052;SDS011;4561;47.450;7.516;2022-12-29T19:34:59;3.67;;;0.87;;
9052;SDS011;4561;47.450;7.516;2022-12-29T19:38:19;0.83;;;0.80;;
9052;SDS011;4561;47.450;7.516;2022-12-29T19:41:40;0.57;;;0.57;;
9052;SDS011;4561;47.450;7.516;2022-12-29T19:45:01;0.70;;;0.60;;
9052;SDS011;4561;47.450;7.516;2022-12-29T19:48:22;0.80;;;0.80;;
9052;SDS011;4561;47.450;7.516;2022-12-29T19:51:45;1.90;;;0.70;;
9052;SDS011;4561;47.450;7.516;2022-12-29T19:55:06;0.73;;;0.50;;
9052;SDS011;4561;47.450;7.516;2022-12-29T19:58:29;0.80;;;0.80;;
9052;SDS011;4561;47.450;7.516;2022-12-29T20:01:51;0.60;;;0.60;;
9052;SDS011;4561;47.450;7.516;2022-12-29T20:05:11;0.80;;;0.60;;
9052;SDS011;4561;47.450;7.516;2022-12-29T20:08:31;0.60;;;0.60;;
9052;SDS011;4561;47.450;7.516;2022-12-29T20:11:52;0.53;;;0.53;;
9052;SDS011;4561;47.450;7.516;2022-12-29T20:15:12;0.60;;;0.60;;
9052;SDS011;4561;47.450;7.516;2022-12-29T20:18:34;0.40;;;0.40;;
9052;SDS011;4561;47.450;7.516;2022-12-29T20:21:57;0.50;;;0.50;;
9052;SDS011;4561;47.450;7.516;2022-12-29T20:25:18;0.50;;;0.50;;
9052;SDS011;4561;47.450;7.516;2022-12-29T20:28:38;0.60;;;0.50;;
9052;SDS011;4561;47.450;7.516;2022-12-29T20:31:58;0.70;;;0.70;;
9052;SDS011;4561;47.450;7.516;2022-12-29T20:35:19;0.60;;;0.60;;
9052;SDS011;4561;47.450;7.516;2022-12-29T20:38:42;0.73;;;0.50;;
9052;SDS011;4561;47.450;7.516;2022-12-29T20:42:04;0.50;;;0.50;;
9052;SDS011;4561;47.450;7.516;2022-12-29T20:45:24;1.13;;;0.50;;
9052;SDS011;4561;47.450;7.516;2022-12-29T20:48:47;0.70;;;0.70;;
9052;SDS011;4561;47.450;7.516;2022-12-29T20:52:09;0.70;;;0.70;;
9052;SDS011;4561;47.450;7.516;2022-12-29T20:55:31;0.60;;;0.60;;
9052;SDS011;4561;47.450;7.516;2022-12-29T20:58:54;0.50;;;0.43;;
9052;SDS011;4561;47.450;7.516;2022-12-29T21:02:17;0.90;;;0.50;;
9052;SDS011;4561;47.450;7.516;2022-12-29T21:05:41;1.60;;;0.40;;
9052;SDS011;4561;47.450;7.516;2022-12-29T21:09:01;0.60;;;0.60;;
9052;SDS011;4561;47.450;7.516;2022-12-29T21:12:25;0.60;;;0.60;;
9052;SDS011;4561;47.450;7.516;2022-12-29T21:15:45;0.50;;;0.50;;
9052;SDS011;4561;47.450;7.516;2022-12-29T21:19:05;0.70;;;0.70;;
9052;SDS011;4561;47.450;7.516;2022-12-29T21:22:28;0.80;;;0.80;;
9052;SDS011;4561;47.450;7.516;2022-12-29T21:25:51;1.63;;;0.70;;
9052;SDS011;4561;47.450;7.516;2022-12-29T21:29:14;0.97;;;0.60;;
9052;SDS011;4561;47.450;7.516;2022-12-29T21:32:34;0.57;;;0.57;;
9052;SDS011;4561;47.450;7.516;2022-12-29T21:35:55;1.43;;;1.33;;
9052;SDS011;4561;47.450;7.516;2022-12-29T21:39:23;1.30;;;1.20;;
9052;SDS011;4561;47.450;7.516;2022-12-29T21:42:43;5.20;;;1.50;;
9052;SDS011;4561;47.450;7.516;2022-12-29T21:46:04;0.80;;;0.80;;
9052;SDS011;4561;47.450;7.516;2022-12-29T21:49:25;0.77;;;0.60;;
9052;SDS011;4561;47.450;7.516;2022-12-29T21:52:47;0.80;;;0.73;;
9052;SDS011;4561;47.450;7.516;2022-12-29T21:59:28;0.70;;;0.70;;
9052;SDS011;4561;47.450;7.516;2022-12-29T22:03:06;0.63;;;0.63;;
9052;SDS011;4561;47.450;7.516;2022-12-29T22:06:45;0.90;;;0.90;;
9052;SDS011;4561;47.450;7.516;2022-12-29T22:10:27;1.30;;;0.60;;
9052;SDS011;4561;47.450;7.516;2022-12-29T22:14:08;0.67;;;0.60;;
9052;SDS011;4561;47.450;7.516;2022-12-29T22:17:30;0.93;;;0.80;;
9052;SDS011;4561;47.450;7.516;2022-12-29T22:20:51;0.73;;;0.73;;
9052;SDS011;4561;47.450;7.516;2022-12-29T22:24:12;0.70;;;0.70;;
9052;SDS011;4561;47.450;7.516;2022-12-29T22:27:32;0.83;;;0.70;;
9052;SDS011;4561;47.450;7.516;2022-12-29T22:30:52;1.73;;;1.00;;
9052;SDS011;4561;47.450;7.516;2022-12-29T22:34:13;0.60;;;0.50;;
9052;SDS011;4561;47.450;7.516;2022-12-29T22:37:35;1.03;;;0.90;;
9052;SDS011;4561;47.450;7.516;2022-12-29T22:40:57;1.20;;;0.90;;
9052;SDS011;4561;47.450;7.516;2022-12-29T22:44:18;0.50;;;0.50;;
9052;SDS011;4561;47.450;7.516;2022-12-29T22:47:38;1.00;;;0.90;;
9052;SDS011;4561;47.450;7.516;2022-12-29T22:50:59;0.77;;;0.77;;
9052;SDS011;4561;47.450;7.516;2022-12-29T22:54:20;0.60;;;0.60;;
9052;SDS011;4561;47.450;7.516;2022-12-29T22:57:40;1.20;;;1.10;;
9052;SDS011;4561;47.450;7.516;2022-12-29T23:01:01;0.40;;;0.40;;
9052;SDS011;4561;47.450;7.516;2022-12-29T23:04:24;0.60;;;0.50;;
9052;SDS011;4561;47.450;7.516;2022-12-29T23:07:44;0.50;;;0.50;;
9052;SDS011;4561;47.450;7.516;2022-12-29T23:11:06;0.40;;;0.40;;
9052;SDS011;4561;47.450;7.516;2022-12-29T23:14:28;1.90;;;1.30;;
9052;SDS011;4561;47.450;7.516;2022-12-29T23:17:48;0.73;;;0.60;;
9052;SDS011;4561;47.450;7.516;2022-12-29T23:21:08;0.60;;;0.40;;
9052;SDS011;4561;47.450;7.516;2022-12-29T23:24:29;0.40;;;0.40;;
9052;SDS011;4561;47.450;7.516;2022-12-29T23:27:49;0.87;;;0.70;;
9052;SDS011;4561;47.450;7.516;2022-12-29T23:31:10;0.60;;;0.60;;
9052;SDS011;4561;47.450;7.516;2022-12-29T23:34:30;0.67;;;0.67;;
9052;SDS011;4561;47.450;7.516;2022-12-29T23:37:54;1.27;;;0.70;;
9052;SDS011;4561;47.450;7.516;2022-12-29T23:41:14;0.60;;;0.60;;
9052;SDS011;4561;47.450;7.516;2022-12-29T23:44:34;1.53;;;1.13;;
9052;SDS011;4561;47.450;7.516;2022-12-29T23:47:55;1.20;;;0.90;;
9052;SDS011;4561;47.450;7.516;2022-12-29T23:51:15;2.07;;;1.53;;